Time;durP1;ratioP1;P1;durP2;ratioP2;P2;SDS_P1;SDS_P2;PMS_P1;PMS_P2;Temp;Humidity;BMP_temperature;BMP_pressure;BME280_temperature;BME280_humidity;BME280_pressure;Samples;Min_cycle;Max_cycle;Signal;HPM_P1;HPM_P2
2021/09/06 00:00:52;;;;;;;9.23;6.65;;;11.70;99.90;;;;;;5068804;27;20557;-74
2021/09/06 00:03:18;;;;;;;11.40;8.00;;;11.70;99.90;;;;;;5104074;27;20042;-74
2021/09/06 00:05:44;;;;;;;10.48;6.65;;;11.70;99.90;;;;;;5102445;27;20040;-74
2021/09/06 00:08:09;;;;;;;12.38;7.78;;;11.70;99.90;;;;;;5123379;27;20397;-74
2021/09/06 00:10:41;;;;;;;10.60;7.05;;;11.60;99.90;;;;;;5067777;27;20126;-74
2021/09/06 00:13:10;;;;;;;10.63;7.80;;;11.70;99.90;;;;;;5103565;27;20557;-74
2021/09/06 00:15:40;;;;;;;10.20;7.90;;;11.60;99.90;;;;;;5104234;27;20043;-74
2021/09/06 00:18:06;;;;;;;10.02;7.10;;;11.70;99.90;;;;;;5113759;27;20048;-74
2021/09/06 00:20:34;;;;;;;8.23;6.22;;;11.70;99.90;;;;;;5086507;27;20059;-74
2021/09/06 00:23:00;;;;;;;8.75;6.22;;;11.70;99.90;;;;;;5072060;27;20380;-74
2021/09/06 00:25:25;;;;;;;9.30;7.20;;;11.60;99.90;;;;;;5087766;28;20042;-75
2021/09/06 00:27:51;;;;;;;10.35;7.28;;;11.60;99.90;;;;;;5084503;27;20054;-74
2021/09/06 00:30:17;;;;;;;11.77;6.72;;;11.50;99.90;;;;;;5087123;28;20043;-75
2021/09/06 00:32:43;;;;;;;8.30;6.78;;;11.50;99.90;;;;;;5069162;28;20043;-74
2021/09/06 00:35:09;;;;;;;9.35;6.13;;;11.50;99.90;;;;;;5116246;27;20047;-74
2021/09/06 00:37:35;;;;;;;8.43;6.63;;;11.40;99.90;;;;;;5086634;28;20039;-74
2021/09/06 00:40:01;;;;;;;8.45;5.85;;;11.40;99.90;;;;;;5097568;28;20252;-74
2021/09/06 00:42:26;;;;;;;10.68;7.47;;;11.30;99.90;;;;;;5084819;28;20039;-74
2021/09/06 00:44:52;;;;;;;9.40;6.55;;;11.20;99.90;;;;;;5067722;28;20046;-74
2021/09/06 00:47:18;;;;;;;9.43;7.03;;;11.20;99.90;;;;;;5119362;27;20031;-74
2021/09/06 00:49:44;;;;;;;14.15;8.90;;;11.10;99.90;;;;;;5071576;28;20128;-74
2021/09/06 00:52:10;;;;;;;16.42;11.40;;;11.10;99.90;;;;;;5069158;27;20579;-74
2021/09/06 00:54:36;;;;;;;11.38;8.43;;;11.10;99.90;;;;;;5088450;28;20512;-74
2021/09/06 00:57:02;;;;;;;12.15;8.98;;;11.10;99.90;;;;;;5069782;28;20501;-74
2021/09/06 00:59:37;;;;;;;10.68;7.95;;;11.10;99.90;;;;;;5101240;27;20037;-76
2021/09/06 01:02:06;;;;;;;13.07;9.52;;;11.10;99.90;;;;;;5133750;27;20413;-74
2021/09/06 01:04:32;;;;;;;11.27;9.43;;;11.20;99.90;;;;;;5087603;27;20054;-74
2021/09/06 01:06:58;;;;;;;11.15;7.70;;;11.20;99.90;;;;;;5102407;28;20511;-76
2021/09/06 01:09:23;;;;;;;8.98;6.80;;;11.30;99.90;;;;;;5051489;28;20051;-75
2021/09/06 01:11:49;;;;;;;9.60;7.40;;;11.20;99.90;;;;;;5102924;28;20039;-75
2021/09/06 01:14:15;;;;;;;9.57;7.18;;;11.10;99.90;;;;;;5072280;28;20031;-75
2021/09/06 01:16:41;;;;;;;9.50;7.35;;;11.10;99.90;;;;;;5070346;28;20056;-73
2021/09/06 01:19:06;;;;;;;10.95;7.32;;;11.10;99.90;;;;;;5086502;28;20054;-74
2021/09/06 01:21:32;;;;;;;12.32;8.30;;;11.10;99.90;;;;;;5086569;28;20556;-74
2021/09/06 01:23:58;;;;;;;9.57;7.65;;;11.00;99.90;;;;;;5103687;28;20821;-74
2021/09/06 01:26:24;;;;;;;9.50;7.20;;;11.00;99.90;;;;;;5100584;28;20122;-73
2021/09/06 01:28:50;;;;;;;10.30;7.53;;;11.00;99.90;;;;;;5085995;27;20091;-75
2021/09/06 01:31:16;;;;;;;9.63;7.78;;;11.00;99.90;;;;;;5122426;27;20046;-75
2021/09/06 01:33:42;;;;;;;10.57;6.82;;;10.90;99.90;;;;;;5089824;27;20062;-75
2021/09/06 01:36:08;;;;;;;11.65;8.57;;;10.90;99.90;;;;;;5106523;27;20141;-75
2021/09/06 01:38:36;;;;;;;11.80;9.23;;;10.80;99.90;;;;;;5092573;27;20047;-75
2021/09/06 01:41:02;;;;;;;10.10;8.02;;;10.80;99.90;;;;;;5074332;27;20047;-74
2021/09/06 01:43:28;;;;;;;9.50;7.93;;;10.70;99.90;;;;;;5093206;27;20123;-76
2021/09/06 01:45:54;;;;;;;10.73;7.45;;;10.60;99.90;;;;;;5087244;27;20031;-75
2021/09/06 01:48:19;;;;;;;10.80;8.27;;;10.60;99.90;;;;;;5098738;27;20408;-75
2021/09/06 01:50:45;;;;;;;10.20;7.20;;;10.60;99.90;;;;;;5097594;27;20043;-75
2021/09/06 01:53:11;;;;;;;10.38;7.68;;;10.50;99.90;;;;;;5074451;27;20062;-76
2021/09/06 01:55:37;;;;;;;12.80;8.48;;;10.60;99.90;;;;;;5123552;27;20031;-75
2021/09/06 01:58:02;;;;;;;11.98;8.73;;;10.50;99.90;;;;;;5122098;27;20043;-75
2021/09/06 02:00:28;;;;;;;12.10;8.35;;;10.60;99.90;;;;;;5087103;27;20404;-75
2021/09/06 02:02:54;;;;;;;12.55;8.63;;;10.60;99.90;;;;;;5120888;27;20053;-74
2021/09/06 02:05:20;;;;;;;13.32;7.93;;;10.50;99.90;;;;;;5103935;27;20035;-74
2021/09/06 02:07:46;;;;;;;11.30;8.50;;;10.50;99.90;;;;;;5089457;27;20104;-74
2021/09/06 02:10:11;;;;;;;11.90;8.18;;;10.50;99.90;;;;;;5073168;27;20058;-74
2021/09/06 02:12:37;;;;;;;9.52;7.20;;;10.50;99.90;;;;;;5091861;27;20662;-74
2021/09/06 02:15:06;;;;;;;10.10;6.68;;;10.40;99.90;;;;;;5088827;27;20035;-74
2021/09/06 02:17:32;;;;;;;11.88;7.43;;;10.40;99.90;;;;;;5084355;28;20060;-73
2021/09/06 02:19:58;;;;;;;13.32;7.63;;;10.30;99.90;;;;;;5087392;28;20054;-74
2021/09/06 02:22:23;;;;;;;9.73;6.95;;;10.40;99.90;;;;;;5100720;28;20050;-73
2021/09/06 02:24:49;;;;;;;11.57;8.55;;;10.30;99.90;;;;;;5100623;27;20054;-74
2021/09/06 02:27:18;;;;;;;12.57;8.73;;;10.30;99.90;;;;;;5085122;28;20036;-74
2021/09/06 02:29:44;;;;;;;9.75;8.75;;;10.30;99.90;;;;;;5104577;28;20097;-74
2021/09/06 02:32:10;;;;;;;12.27;8.82;;;10.30;99.90;;;;;;5105998;28;20044;-74
2021/09/06 02:34:36;;;;;;;11.93;8.32;;;10.30;99.90;;;;;;5086617;28;20058;-74
2021/09/06 02:37:02;;;;;;;19.05;11.77;;;10.20;99.90;;;;;;5086538;28;20054;-74
2021/09/06 02:39:27;;;;;;;13.75;8.73;;;10.10;99.90;;;;;;5084397;28;20055;-73
2021/09/06 02:41:58;;;;;;;11.05;8.80;;;10.10;99.90;;;;;;5087352;28;20526;-74
2021/09/06 02:44:30;;;;;;;12.02;9.02;;;10.00;99.90;;;;;;5069388;28;20533;-74
2021/09/06 02:46:57;;;;;;;11.77;9.02;;;10.00;99.90;;;;;;5098527;28;20054;-74
2021/09/06 02:49:23;;;;;;;14.30;10.27;;;10.10;99.90;;;;;;5102344;28;20043;-74
2021/09/06 02:51:50;;;;;;;10.20;7.97;;;10.10;99.90;;;;;;5086904;28;20043;-74
2021/09/06 02:54:19;;;;;;;10.45;7.82;;;10.20;99.90;;;;;;5087799;28;20393;-74
2021/09/06 02:56:45;;;;;;;8.43;7.20;;;10.10;99.90;;;;;;5103822;28;20089;-75
2021/09/06 02:59:11;;;;;;;8.27;6.32;;;10.10;99.90;;;;;;5084950;28;20052;-74
2021/09/06 03:01:37;;;;;;;9.32;7.10;;;10.10;99.90;;;;;;5103690;28;20038;-73
2021/09/06 03:04:06;;;;;;;9.57;7.28;;;10.00;99.90;;;;;;5083077;28;20078;-74
2021/09/06 03:06:31;;;;;;;14.20;12.07;;;10.00;99.90;;;;;;5084987;28;20047;-74
2021/09/06 03:08:57;;;;;;;13.32;10.32;;;10.00;99.90;;;;;;5100974;28;20050;-74
2021/09/06 03:11:24;;;;;;;11.15;8.85;;;10.00;99.90;;;;;;5101122;28;20241;-74
2021/09/06 03:13:54;;;;;;;11.98;9.20;;;10.00;99.90;;;;;;5068685;28;20047;-73
2021/09/06 03:16:22;;;;;;;11.52;8.95;;;9.90;99.90;;;;;;5102067;28;20074;-74
2021/09/06 03:18:48;;;;;;;12.93;10.68;;;9.90;99.90;;;;;;5088069;28;20055;-73
2021/09/06 03:21:14;;;;;;;20.02;14.25;;;9.90;99.90;;;;;;5063855;28;20118;-73
2021/09/06 03:23:40;;;;;;;16.75;10.27;;;9.90;99.90;;;;;;5067731;28;20043;-74
2021/09/06 03:26:06;;;;;;;13.48;10.38;;;9.80;99.90;;;;;;5066540;28;20421;-74
2021/09/06 03:28:32;;;;;;;13.25;9.88;;;9.80;99.90;;;;;;5104243;27;20501;-74
2021/09/06 03:30:58;;;;;;;13.57;9.43;;;9.80;99.90;;;;;;5083210;28;20042;-74
2021/09/06 03:33:24;;;;;;;11.80;9.35;;;9.80;99.90;;;;;;5103101;28;20059;-74
2021/09/06 03:35:50;;;;;;;14.93;10.98;;;9.90;99.90;;;;;;5085047;28;20075;-73
2021/09/06 03:38:16;;;;;;;14.85;11.82;;;9.80;99.90;;;;;;5101607;28;20036;-74
2021/09/06 03:40:42;;;;;;;11.85;9.63;;;9.80;99.90;;;;;;5100360;28;20047;-74
2021/09/06 03:43:07;;;;;;;19.45;14.13;;;9.70;99.90;;;;;;5101106;28;20398;-74
2021/09/06 03:45:36;;;;;;;13.65;12.13;;;9.70;99.90;;;;;;5101357;28;20107;-75
2021/09/06 03:48:02;;;;;;;13.40;11.25;;;9.60;99.90;;;;;;5069874;28;20043;-75
2021/09/06 03:50:28;;;;;;;14.88;11.73;;;9.60;99.90;;;;;;5099172;28;20048;-75
2021/09/06 03:52:57;;;;;;;13.65;11.18;;;9.60;99.90;;;;;;5085550;28;20043;-74
2021/09/06 03:55:23;;;;;;;13.88;11.40;;;9.60;99.90;;;;;;5130732;27;20040;-75
2021/09/06 03:57:48;;;;;;;15.48;12.27;;;9.70;99.90;;;;;;5081152;28;20513;-75
2021/09/06 04:00:15;;;;;;;12.77;11.30;;;9.70;99.90;;;;;;5098874;28;20035;-75
2021/09/06 04:02:40;;;;;;;16.33;12.63;;;9.70;99.90;;;;;;5075127;28;20040;-75
2021/09/06 04:05:13;;;;;;;14.32;11.32;;;9.70;99.90;;;;;;5063418;28;20047;-75
2021/09/06 04:07:39;;;;;;;13.80;11.60;;;9.70;99.90;;;;;;5071273;28;20129;-75
2021/09/06 04:10:05;;;;;;;16.70;12.82;;;9.70;99.90;;;;;;5064390;28;20450;-75
2021/09/06 04:12:31;;;;;;;14.77;11.57;;;9.70;99.90;;;;;;5058374;28;20052;-75
2021/09/06 04:14:57;;;;;;;14.45;11.63;;;9.60;99.90;;;;;;5087960;28;20065;-75
2021/09/06 04:17:23;;;;;;;13.60;11.82;;;9.60;99.90;;;;;;5072017;28;20067;-75
2021/09/06 04:19:49;;;;;;;14.07;10.50;;;9.50;99.90;;;;;;5080250;28;20352;-75
2021/09/06 04:22:14;;;;;;;12.82;10.52;;;9.50;99.90;;;;;;5072046;28;20043;-75
2021/09/06 04:24:40;;;;;;;15.57;12.35;;;9.40;99.90;;;;;;5085138;28;20082;-74
2021/09/06 04:27:06;;;;;;;13.85;11.35;;;9.40;99.90;;;;;;5076708;28;20064;-75
2021/09/06 04:29:31;;;;;;;14.10;11.15;;;9.50;99.90;;;;;;5055258;28;20082;-74
2021/09/06 04:31:57;;;;;;;11.70;10.15;;;9.50;99.90;;;;;;5069582;28;20039;-74
2021/09/06 04:34:23;;;;;;;13.20;10.57;;;9.50;99.90;;;;;;5080513;28;20038;-74
2021/09/06 04:36:49;;;;;;;12.73;10.60;;;9.50;99.90;;;;;;5064443;28;20405;-75
2021/09/06 04:39:15;;;;;;;12.07;10.70;;;9.50;99.90;;;;;;5083915;28;20051;-74
2021/09/06 04:41:40;;;;;;;11.65;8.90;;;9.50;99.90;;;;;;5076261;28;20097;-74
2021/09/06 04:44:06;;;;;;;11.60;10.20;;;9.40;99.90;;;;;;5077547;28;20562;-74
2021/09/06 04:46:35;;;;;;;12.63;10.32;;;9.40;99.90;;;;;;5086855;28;20049;-74
2021/09/06 04:49:01;;;;;;;12.15;10.48;;;9.50;99.90;;;;;;5089164;28;20032;-74
2021/09/06 04:51:27;;;;;;;11.77;10.00;;;9.50;99.90;;;;;;5067140;28;20043;-74
2021/09/06 04:53:53;;;;;;;13.18;10.23;;;9.50;99.90;;;;;;5090443;28;20509;-74
2021/09/06 04:56:20;;;;;;;12.07;10.07;;;9.40;99.90;;;;;;5067430;28;20498;-74
2021/09/06 04:58:46;;;;;;;11.80;9.25;;;9.50;99.90;;;;;;5084954;28;20383;-74
2021/09/06 05:01:11;;;;;;;13.38;11.98;;;9.50;99.90;;;;;;5061826;28;20060;-74
2021/09/06 05:03:37;;;;;;;26.17;15.32;;;9.50;99.90;;;;;;5068622;28;20046;-74
2021/09/06 05:06:06;;;;;;;19.77;10.85;;;9.40;99.90;;;;;;5098811;28;20060;-74
2021/09/06 05:08:32;;;;;;;16.65;12.73;;;9.40;99.90;;;;;;5090339;28;20101;-74
2021/09/06 05:10:57;;;;;;;15.43;11.73;;;9.40;99.90;;;;;;5081034;28;20048;-74
2021/09/06 05:13:24;;;;;;;17.48;12.50;;;9.50;99.90;;;;;;5081978;28;20150;-74
2021/09/06 05:15:50;;;;;;;15.23;12.15;;;9.50;99.90;;;;;;5106085;27;20057;-74
2021/09/06 05:18:16;;;;;;;17.20;13.10;;;9.60;99.90;;;;;;5114737;27;20077;-74
2021/09/06 05:20:42;;;;;;;13.63;12.23;;;9.60;99.90;;;;;;5076587;27;20417;-75
2021/09/06 05:23:08;;;;;;;13.95;12.48;;;9.70;99.90;;;;;;5098435;28;20059;-75
2021/09/06 05:25:37;;;;;;;13.98;12.05;;;9.70;99.90;;;;;;5103213;27;20069;-75
2021/09/06 05:28:07;;;;;;;15.35;13.50;;;9.70;99.90;;;;;;5074259;27;20047;-75
2021/09/06 05:30:36;;;;;;;16.15;13.40;;;9.80;99.90;;;;;;5085856;27;20036;-75
2021/09/06 05:33:02;;;;;;;12.48;10.43;;;9.80;99.90;;;;;;5121457;27;20050;-75
2021/09/06 05:35:28;;;;;;;14.57;12.63;;;9.80;99.90;;;;;;5092695;27;20096;-75
2021/09/06 05:37:54;;;;;;;15.50;12.15;;;9.80;99.90;;;;;;5072393;27;20508;-75
2021/09/06 05:40:19;;;;;;;15.77;14.20;;;9.80;99.90;;;;;;5108711;27;20035;-75
2021/09/06 05:42:45;;;;;;;13.80;11.40;;;9.90;99.90;;;;;;5073918;27;20074;-75
2021/09/06 05:45:11;;;;;;;14.07;11.65;;;9.90;99.90;;;;;;5090949;27;20067;-74
2021/09/06 05:47:37;;;;;;;13.07;10.68;;;9.90;99.90;;;;;;5073036;27;20495;-75
2021/09/06 05:50:04;;;;;;;14.98;12.70;;;9.90;99.90;;;;;;5088457;27;20131;-75
2021/09/06 05:52:30;;;;;;;18.58;13.82;;;10.00;99.90;;;;;;5087918;27;20079;-75
2021/09/06 05:54:55;;;;;;;13.60;12.10;;;10.00;99.90;;;;;;5088868;27;20085;-74
2021/09/06 05:57:24;;;;;;;18.15;15.18;;;10.00;99.90;;;;;;5074404;27;20031;-75
2021/09/06 05:59:50;;;;;;;14.07;11.48;;;10.00;99.90;;;;;;5108006;27;20046;-74
2021/09/06 06:02:16;;;;;;;13.20;11.38;;;10.10;99.90;;;;;;5088900;27;20528;-75
2021/09/06 06:04:42;;;;;;;14.55;13.00;;;10.10;99.90;;;;;;5088679;27;20078;-75
2021/09/06 06:07:07;;;;;;;18.48;14.10;;;10.20;99.90;;;;;;5070494;27;20039;-75
2021/09/06 06:09:36;;;;;;;18.73;14.90;;;10.30;99.90;;;;;;5072299;27;20039;-75
2021/09/06 06:12:02;;;;;;;14.45;12.60;;;10.30;99.90;;;;;;5089765;27;20501;-74
2021/09/06 06:14:28;;;;;;;14.07;12.57;;;10.40;99.90;;;;;;5089337;27;20035;-75
2021/09/06 06:16:54;;;;;;;22.15;16.30;;;10.40;99.90;;;;;;5090259;27;20055;-75
2021/09/06 06:19:20;;;;;;;20.90;13.63;;;10.50;99.90;;;;;;5088875;27;20043;-74
2021/09/06 06:21:45;;;;;;;18.50;14.98;;;10.50;99.90;;;;;;5099086;27;20110;-75
2021/09/06 06:24:11;;;;;;;19.92;15.50;;;10.60;99.90;;;;;;5100768;27;20039;-75
2021/09/06 06:26:37;;;;;;;16.90;14.70;;;10.70;99.90;;;;;;5085099;27;20124;-74
2021/09/06 06:29:05;;;;;;;16.17;14.05;;;10.80;99.90;;;;;;5119459;27;20045;-75
2021/09/06 06:31:31;;;;;;;17.42;15.57;;;10.90;99.90;;;;;;5106046;27;20035;-76
2021/09/06 06:33:57;;;;;;;17.92;16.02;;;10.90;99.90;;;;;;5085328;27;20538;-76
2021/09/06 06:36:23;;;;;;;20.33;16.27;;;11.00;99.90;;;;;;5073987;27;20038;-76
2021/09/06 06:38:49;;;;;;;21.23;18.90;;;11.20;99.90;;;;;;5072545;27;20501;-76
2021/09/06 06:41:16;;;;;;;19.75;16.50;;;11.20;99.90;;;;;;5103821;27;20055;-76
2021/09/06 06:43:42;;;;;;;21.73;18.13;;;11.30;99.90;;;;;;5107536;27;20501;-76
2021/09/06 06:46:08;;;;;;;24.25;20.63;;;11.50;99.90;;;;;;5089065;27;20043;-76
2021/09/06 06:48:37;;;;;;;25.95;20.77;;;11.50;99.90;;;;;;5073868;27;20039;-75
2021/09/06 06:51:06;;;;;;;26.33;19.83;;;11.70;99.90;;;;;;5092750;27;20684;-76
2021/09/06 06:53:32;;;;;;;22.75;18.50;;;11.80;99.90;;;;;;5072065;27;20071;-76
2021/09/06 06:55:57;;;;;;;25.38;21.30;;;11.90;99.90;;;;;;5100807;27;20043;-75
2021/09/06 06:58:24;;;;;;;27.17;19.55;;;12.10;99.90;;;;;;5101675;27;20043;-75
2021/09/06 07:00:50;;;;;;;28.27;21.60;;;12.10;99.90;;;;;;5071412;27;20153;-75
2021/09/06 07:03:16;;;;;;;26.50;20.45;;;12.30;99.90;;;;;;5106459;27;20070;-76
2021/09/06 07:05:42;;;;;;;28.20;21.13;;;12.50;99.90;;;;;;5055243;27;20075;-76
2021/09/06 07:08:08;;;;;;;29.23;20.35;;;12.70;99.90;;;;;;5087385;27;20464;-76
2021/09/06 07:10:36;;;;;;;27.98;20.83;;;12.90;99.90;;;;;;5087762;27;20043;-76
2021/09/06 07:13:02;;;;;;;28.95;20.98;;;13.00;99.90;;;;;;5071570;27;20404;-75
2021/09/06 07:15:32;;;;;;;30.20;21.52;;;13.30;99.90;;;;;;5099985;27;20047;-76
2021/09/06 07:17:59;;;;;;;27.00;20.70;;;13.50;99.90;;;;;;5112844;27;20055;-75
2021/09/06 07:20:25;;;;;;;24.67;18.83;;;13.80;99.90;;;;;;5105208;27;20034;-76
2021/09/06 07:22:51;;;;;;;26.27;19.67;;;14.10;99.90;;;;;;5073207;27;20111;-76
2021/09/06 07:25:17;;;;;;;26.25;20.35;;;14.40;99.90;;;;;;5097463;27;20126;-76
2021/09/06 07:27:47;;;;;;;25.17;18.40;;;14.80;99.90;;;;;;5067016;27;20118;-76
2021/09/06 07:30:13;;;;;;;22.40;16.40;;;15.00;99.90;;;;;;5104734;27;20114;-76
2021/09/06 07:32:39;;;;;;;20.80;14.52;;;15.30;99.90;;;;;;5070047;27;20485;-76
2021/09/06 07:35:05;;;;;;;20.02;14.27;;;15.60;99.90;;;;;;5095278;27;20035;-76
2021/09/06 07:37:31;;;;;;;16.70;12.77;;;15.90;99.90;;;;;;5100660;27;20389;-76
2021/09/06 07:39:57;;;;;;;16.95;12.45;;;16.10;99.90;;;;;;5120570;27;20047;-77
2021/09/06 07:42:24;;;;;;;18.73;12.70;;;16.40;99.90;;;;;;5085354;27;20066;-76
2021/09/06 07:44:49;;;;;;;14.60;11.52;;;16.50;99.90;;;;;;5105178;27;20043;-76
2021/09/06 07:47:15;;;;;;;14.40;11.88;;;16.70;99.90;;;;;;5086556;27;20054;-77
2021/09/06 07:49:44;;;;;;;17.25;12.95;;;16.80;99.90;;;;;;5103819;27;20123;-76
2021/09/06 07:52:10;;;;;;;16.73;12.35;;;16.90;99.90;;;;;;5105511;27;20150;-76
2021/09/06 07:54:35;;;;;;;15.32;12.02;;;17.00;99.90;;;;;;5082925;27;20129;-76
2021/09/06 07:57:07;;;;;;;15.18;11.50;;;17.10;99.90;;;;;;5122107;27;20055;-75
2021/09/06 07:59:36;;;;;;;15.35;11.20;;;17.10;99.90;;;;;;5137499;27;20035;-76
2021/09/06 08:02:02;;;;;;;18.90;12.63;;;17.10;99.90;;;;;;5087579;27;20134;-77
2021/09/06 08:04:28;;;;;;;18.25;14.20;;;17.20;99.90;;;;;;5088425;27;20088;-77
2021/09/06 08:06:54;;;;;;;18.77;13.43;;;17.20;99.90;;;;;;5070385;27;20031;-76
2021/09/06 08:09:19;;;;;;;16.33;12.07;;;17.20;99.90;;;;;;5084157;28;20138;-76
2021/09/06 08:11:46;;;;;;;17.05;12.25;;;17.40;99.90;;;;;;5068712;27;20042;-76
2021/09/06 08:14:12;;;;;;;17.38;13.52;;;17.50;99.90;;;;;;5082968;28;20153;-76
2021/09/06 08:16:38;;;;;;;17.65;12.75;;;17.70;99.90;;;;;;5082324;27;20077;-76
2021/09/06 08:19:04;;;;;;;19.77;13.98;;;17.90;99.90;;;;;;5117318;27;20063;-76
2021/09/06 08:21:31;;;;;;;16.92;12.35;;;18.00;99.90;;;;;;5070485;27;20540;-76
2021/09/06 08:23:58;;;;;;;21.00;14.02;;;18.10;99.90;;;;;;5068995;27;20078;-76
2021/09/06 08:26:25;;;;;;;16.38;13.57;;;18.20;99.90;;;;;;5084672;27;20031;-76
2021/09/06 08:28:51;;;;;;;16.55;13.52;;;18.40;99.90;;;;;;5071095;27;20127;-76
2021/09/06 08:31:17;;;;;;;16.38;11.75;;;18.50;99.90;;;;;;5104215;28;20036;-76
2021/09/06 08:33:43;;;;;;;18.50;13.35;;;18.60;99.90;;;;;;5099055;28;20140;-76
2021/09/06 08:36:10;;;;;;;17.38;12.77;;;18.60;99.90;;;;;;5064078;27;20051;-76
2021/09/06 08:38:37;;;;;;;36.50;19.92;;;18.70;99.90;;;;;;5081845;27;20065;-76
2021/09/06 08:41:04;;;;;;;15.70;11.50;;;18.80;99.90;;;;;;5102383;27;20039;-76
2021/09/06 08:43:32;;;;;;;14.55;11.82;;;19.00;99.80;;;;;;5090136;28;20130;-76
2021/09/06 08:46:00;;;;;;;15.88;12.02;;;19.30;99.80;;;;;;5081403;28;20032;-76
2021/09/06 08:48:26;;;;;;;13.40;11.18;;;19.40;98.50;;;;;;5055674;28;20549;-76
2021/09/06 08:50:53;;;;;;;15.82;11.20;;;19.60;97.20;;;;;;5069251;28;20617;-76
2021/09/06 08:53:18;;;;;;;16.60;11.68;;;19.60;96.40;;;;;;5072721;28;20051;-76
2021/09/06 08:55:44;;;;;;;13.00;11.20;;;19.70;96.70;;;;;;5102130;28;20043;-76
2021/09/06 08:58:10;;;;;;;12.75;10.38;;;19.80;96.10;;;;;;5086360;28;20074;-76
2021/09/06 09:00:36;;;;;;;14.02;11.02;;;20.00;95.50;;;;;;5087790;28;20055;-76
2021/09/06 09:03:09;;;;;;;13.48;11.48;;;20.00;94.30;;;;;;5085609;28;20123;-75
2021/09/06 09:05:35;;;;;;;13.63;10.02;;;20.00;93.70;;;;;;5089505;28;20056;-75
2021/09/06 09:08:02;;;;;;;15.65;10.82;;;20.00;94.00;;;;;;5081900;28;20095;-75
2021/09/06 09:10:32;;;;;;;13.90;11.23;;;19.90;94.00;;;;;;5069325;28;20563;-75
2021/09/06 09:13:04;;;;;;;;;;;20.00;94.10;;;;;;5085260;27;20054;-75
2021/09/06 09:15:30;;;;;;;14.40;10.57;;;20.00;94.80;;;;;;5087054;28;19950;-75
2021/09/06 09:17:56;;;;;;;10.23;8.57;;;20.00;94.30;;;;;;5100155;27;20095;-75
2021/09/06 09:20:22;;;;;;;14.00;10.43;;;20.00;93.80;;;;;;5086276;28;20043;-74
2021/09/06 09:22:48;;;;;;;14.63;10.00;;;20.10;93.40;;;;;;5089411;28;20092;-75
2021/09/06 09:25:14;;;;;;;12.48;9.80;;;20.20;93.40;;;;;;5070320;28;20042;-75
2021/09/06 09:27:44;;;;;;;13.38;10.98;;;20.40;92.90;;;;;;5068585;28;20047;-74
2021/09/06 09:30:30;;;;;;;12.60;10.02;;;20.60;92.00;;;;;;5085471;28;20051;-75
2021/09/06 09:33:12;;;;;;;15.68;11.25;;;20.60;92.20;;;;;;5113735;27;20099;-74
2021/09/06 09:35:39;;;;;;;14.35;11.30;;;20.70;91.50;;;;;;5096027;28;20059;-75
2021/09/06 09:38:10;;;;;;;11.98;9.23;;;20.80;91.20;;;;;;5110677;27;20064;-74
2021/09/06 09:40:39;;;;;;;12.48;10.55;;;20.90;91.40;;;;;;5083476;28;20130;-74
2021/09/06 09:43:06;;;;;;;13.77;10.65;;;21.00;91.00;;;;;;5102735;28;20075;-74
2021/09/06 09:45:33;;;;;;;12.27;9.10;;;21.20;91.10;;;;;;5085289;27;20048;-74
2021/09/06 09:48:01;;;;;;;15.00;10.65;;;21.20;90.20;;;;;;5098662;28;20058;-74
2021/09/06 09:50:30;;;;;;;14.48;10.52;;;21.30;90.40;;;;;;5100867;28;20397;-74
2021/09/06 09:53:02;;;;;;;10.95;9.70;;;21.40;90.40;;;;;;5089360;27;20051;-75
2021/09/06 09:55:34;;;;;;;13.73;10.55;;;21.50;90.20;;;;;;5092308;27;20540;-75
2021/09/06 09:58:00;;;;;;;12.15;9.60;;;21.60;89.80;;;;;;5107156;27;20050;-74
2021/09/06 10:00:26;;;;;;;13.65;10.40;;;21.80;89.30;;;;;;5101132;27;20135;-74
2021/09/06 10:03:01;;;;;;;13.30;10.98;;;21.80;88.20;;;;;;5099949;27;20090;-74
2021/09/06 10:05:33;;;;;;;13.40;10.10;;;21.80;86.20;;;;;;5103039;27;20031;-74
2021/09/06 10:08:11;;;;;;;12.73;10.40;;;21.80;84.70;;;;;;5076037;27;20078;-74
2021/09/06 10:10:39;;;;;;;14.55;9.98;;;21.80;85.00;;;;;;5102014;27;20051;-74
2021/09/06 10:13:12;;;;;;;13.40;9.50;;;21.90;86.60;;;;;;5104911;27;20100;-74
2021/09/06 10:15:40;;;;;;;13.02;10.20;;;22.10;87.30;;;;;;5099463;27;20044;-75
2021/09/06 10:18:20;;;;;;;11.40;9.02;;;22.20;85.10;;;;;;5104111;27;20047;-75
2021/09/06 10:20:48;;;;;;;13.23;9.15;;;22.30;85.50;;;;;;5104493;27;20074;-74
2021/09/06 10:23:14;;;;;;;10.25;9.18;;;22.40;82.80;;;;;;5103493;27;20040;-75
2021/09/06 10:25:43;;;;;;;12.40;9.02;;;22.40;82.80;;;;;;5087128;27;20054;-76
2021/09/06 10:28:13;;;;;;;10.57;8.70;;;22.50;83.20;;;;;;5100672;27;20051;-74
2021/09/06 10:30:52;;;;;;;15.98;9.80;;;22.60;81.90;;;;;;5122791;27;20043;-76
2021/09/06 10:33:37;;;;;;;12.20;9.43;;;22.70;83.10;;;;;;5103542;27;20043;-75
2021/09/06 10:36:18;;;;;;;11.20;9.02;;;22.80;83.50;;;;;;5102668;27;20042;-76
2021/09/06 10:38:52;;;;;;;13.13;9.65;;;22.90;82.50;;;;;;5103934;27;20073;-76
2021/09/06 10:41:23;;;;;;;12.98;9.90;;;22.80;81.10;;;;;;5106776;27;20053;-76
2021/09/06 10:44:07;;;;;;;10.25;8.35;;;22.90;81.60;;;;;;5116376;27;20402;-75
2021/09/06 10:46:33;;;;;;;11.25;9.23;;;22.90;81.60;;;;;;5104436;27;20078;-75
2021/09/06 10:49:06;;;;;;;12.43;9.15;;;22.90;80.20;;;;;;5107851;27;20043;-75
2021/09/06 10:51:35;;;;;;;14.68;9.13;;;22.90;80.60;;;;;;5089003;27;20051;-75
2021/09/06 10:54:07;;;;;;;11.55;8.88;;;22.90;80.60;;;;;;5090068;27;20051;-76
2021/09/06 10:56:37;;;;;;;11.82;9.13;;;22.80;81.00;;;;;;5094650;27;20499;-75
2021/09/06 10:59:06;;;;;;;10.95;7.95;;;22.90;80.60;;;;;;5070292;27;20046;-75
2021/09/06 11:01:32;;;;;;;10.02;8.10;;;22.90;80.60;;;;;;5117610;27;20097;-75
2021/09/06 11:03:58;;;;;;;11.45;8.35;;;22.90;79.80;;;;;;5082400;27;20518;-75
2021/09/06 11:06:28;;;;;;;10.52;9.10;;;23.00;79.40;;;;;;5128463;27;20069;-76
2021/09/06 11:08:54;;;;;;;12.88;10.00;;;23.10;80.60;;;;;;5092515;27;20046;-75
2021/09/06 11:11:21;;;;;;;12.75;10.10;;;23.20;81.00;;;;;;5111824;27;20039;-75
2021/09/06 11:13:48;;;;;;;12.27;9.80;;;23.30;82.60;;;;;;5095412;27;20069;-75
2021/09/06 11:16:16;;;;;;;13.05;10.18;;;23.40;76.60;;;;;;5097104;27;20089;-75
2021/09/06 11:18:48;;;;;;;13.88;9.70;;;23.30;77.80;;;;;;5104445;27;20051;-76
2021/09/06 11:21:14;;;;;;;12.15;9.20;;;23.30;80.60;;;;;;5130233;27;20043;-75
2021/09/06 11:23:45;;;;;;;12.48;9.52;;;23.20;80.90;;;;;;5095993;27;20050;-74
2021/09/06 11:26:27;;;;;;;10.10;8.73;;;22.90;80.50;;;;;;5077102;28;20460;-74
2021/09/06 11:28:53;;;;;;;12.45;10.05;;;22.80;79.90;;;;;;5138497;27;20108;-76
2021/09/06 11:31:23;;;;;;;12.25;9.40;;;22.70;83.20;;;;;;5092657;28;20480;-75
2021/09/06 11:33:57;;;;;;;;;;;22.80;81.80;;;;;;5104034;27;20069;-76
2021/09/06 11:36:23;;;;;;;11.88;9.38;;;22.60;82.40;;;;;;5088309;27;19924;-75
2021/09/06 11:38:49;;;;;;;10.77;8.80;;;22.60;80.70;;;;;;5095649;27;20073;-75
2021/09/06 11:41:17;;;;;;;10.10;8.02;;;22.60;78.20;;;;;;5073074;28;20051;-75
2021/09/06 11:43:43;;;;;;;10.20;8.20;;;22.60;78.50;;;;;;5103287;27;20050;-75
2021/09/06 11:46:14;;;;;;;11.20;8.93;;;22.60;80.00;;;;;;5087789;27;20039;-75
2021/09/06 11:48:46;;;;;;;9.93;8.35;;;22.60;78.20;;;;;;5062744;28;20493;-75
2021/09/06 11:51:13;;;;;;;12.02;9.68;;;22.50;78.30;;;;;;5086538;28;20549;-76
2021/09/06 11:53:39;;;;;;;11.80;9.15;;;22.40;77.40;;;;;;5084333;27;20046;-75
2021/09/06 11:56:14;;;;;;;12.25;9.25;;;22.30;78.30;;;;;;5099697;27;20168;-75
2021/09/06 11:58:46;;;;;;;12.38;8.70;;;22.20;83.70;;;;;;5115091;27;20039;-75
2021/09/06 12:01:16;;;;;;;11.93;8.85;;;22.20;80.50;;;;;;5096214;27;20050;-75
2021/09/06 12:03:44;;;;;;;12.02;9.85;;;22.20;82.10;;;;;;5102013;27;20046;-75
2021/09/06 12:06:16;;;;;;;11.52;9.10;;;22.20;83.80;;;;;;5082105;27;21350;-75
2021/09/06 12:08:57;;;;;;;11.32;9.20;;;22.20;82.10;;;;;;5105050;27;20053;-75
2021/09/06 12:11:37;;;;;;;13.40;9.30;;;22.10;83.10;;;;;;5078674;27;20039;-75
2021/09/06 12:14:06;;;;;;;13.75;9.13;;;22.10;82.60;;;;;;5099918;27;20150;-75
2021/09/06 12:16:34;;;;;;;10.10;8.17;;;22.00;83.10;;;;;;5078417;28;20048;-75
2021/09/06 12:19:00;;;;;;;12.40;9.25;;;22.00;84.20;;;;;;5091759;28;20289;-75
2021/09/06 12:21:27;;;;;;;10.73;8.75;;;22.10;83.00;;;;;;5101874;28;20044;-76
2021/09/06 12:24:06;;;;;;;11.73;9.05;;;22.20;84.60;;;;;;5077124;28;20066;-75
2021/09/06 12:26:40;;;;;;;11.52;8.15;;;22.40;84.50;;;;;;5095901;28;20077;-75
2021/09/06 12:29:07;;;;;;;10.70;9.27;;;22.60;84.50;;;;;;5094952;28;20036;-75
2021/09/06 12:31:44;;;;;;;13.65;9.63;;;22.70;84.30;;;;;;5073634;28;20044;-75
2021/09/06 12:34:13;;;;;;;10.90;8.60;;;23.00;82.50;;;;;;5099402;28;20039;-76
2021/09/06 12:36:40;;;;;;;10.45;8.55;;;23.10;77.00;;;;;;5092074;28;20040;-76